createdAt,value
2022-09-27T00:01:50.605Z,74.03
2022-09-27T00:06:52.653Z,73.96
2022-09-27T00:11:54.685Z,73.69
2022-09-27T00:16:57.813Z,73.85
2022-09-27T00:21:59.821Z,74.14
2022-09-27T00:27:01.866Z,73.54
2022-09-27T00:32:05.499Z,73.52
2022-09-27T00:37:08.240Z,73.66
2022-09-27T00:42:11.148Z,74.08
2022-09-27T00:47:23.107Z,74.05
2022-09-27T00:52:29.320Z,73.92
2022-09-27T00:57:31.836Z,73.69
2022-09-27T01:02:36.521Z,73.55
2022-09-27T01:07:38.599Z,73.57
2022-09-27T01:12:50.908Z,74.01
2022-09-27T01:18:11.579Z,73.63
2022-09-27T01:23:36.883Z,73.55
2022-09-27T01:28:51.996Z,73.53
2022-09-27T01:34:02.025Z,73.29
2022-09-27T01:39:16.403Z,73.08
2022-09-27T01:44:27.672Z,72.95
2022-09-27T01:49:35.312Z,73.39
2022-09-27T01:54:41.140Z,73.71
2022-09-27T01:59:47.568Z,72.78
2022-09-27T02:04:55.762Z,72.67
2022-09-27T02:10:01.141Z,72.68
2022-09-27T02:15:06.807Z,72.57
2022-09-27T02:20:15.608Z,72.84
2022-09-27T02:25:24.545Z,73.33
2022-09-27T02:30:27.117Z,74.10
2022-09-27T02:35:32.995Z,75.30
2022-09-27T02:40:42.895Z,76.33
2022-09-27T02:45:59.879Z,76.01
2022-09-27T02:51:24.682Z,76.14
2022-09-27T02:56:35.136Z,75.89
2022-09-27T03:01:45.918Z,76.61
2022-09-27T03:06:50.992Z,76.67
2022-09-27T03:11:52.668Z,76.27
2022-09-27T03:16:54.882Z,77.01
2022-09-27T03:21:58.486Z,78.10
2022-09-27T03:27:00.286Z,79.57
2022-09-27T03:32:02.544Z,80.94
2022-09-27T03:37:05.807Z,81.87
2022-09-27T03:42:08.031Z,82.24
2022-09-27T03:47:10.265Z,82.91
2022-09-27T03:52:13.886Z,83.26
2022-09-27T03:57:16.397Z,83.04
2022-09-27T04:02:18.525Z,83.68
2022-09-27T04:07:22.206Z,83.80
2022-09-27T04:12:24.491Z,83.61
2022-09-27T04:17:26.560Z,83.74
2022-09-27T04:22:30.795Z,84.03
2022-09-27T04:27:32.871Z,85.25
2022-09-27T04:32:34.518Z,86.02
2022-09-27T04:37:38.213Z,86.99
2022-09-27T04:42:40.413Z,88.27
2022-09-27T04:47:43.552Z,89.05
2022-09-27T04:52:51.148Z,89.70
2022-09-27T04:57:53.210Z,90.58
2022-09-27T05:02:54.971Z,91.12
2022-09-27T05:07:58.099Z,91.92
2022-09-27T05:13:00.126Z,92.94
2022-09-27T05:18:02.256Z,93.71
2022-09-27T05:23:05.909Z,94.35
2022-09-27T05:28:07.925Z,94.70
2022-09-27T05:33:09.911Z,94.79
2022-09-27T05:38:13.340Z,94.96
2022-09-27T05:43:15.035Z,95.02
2022-09-27T05:48:17.221Z,95.17
2022-09-27T05:53:22.432Z,94.65
2022-09-27T05:58:24.471Z,95.00
2022-09-27T06:03:26.226Z,95.22
2022-09-27T06:08:29.583Z,95.05
2022-09-27T06:13:31.995Z,95.05
2022-09-27T06:18:34.467Z,94.90
2022-09-27T06:23:37.583Z,95.43
2022-09-27T06:28:39.263Z,94.85
2022-09-27T06:33:41.026Z,95.09
2022-09-27T06:38:44.004Z,95.50
2022-09-27T06:43:45.950Z,95.45
2022-09-27T06:48:47.897Z,95.50
2022-09-27T06:53:51.146Z,95.78
2022-09-27T06:58:53.314Z,95.54
2022-09-27T07:03:54.950Z,95.38
2022-09-27T07:08:57.943Z,94.46
2022-09-27T07:14:00.284Z,93.23
2022-09-27T07:19:02.516Z,92.55
2022-09-27T07:24:06.166Z,92.51
2022-09-27T07:29:07.909Z,92.79
2022-09-27T07:34:10.611Z,92.17
2022-09-27T07:39:13.942Z,92.20
2022-09-27T07:44:15.801Z,92.00
2022-09-27T07:49:17.762Z,91.70
2022-09-27T07:54:20.782Z,91.39
2022-09-27T07:59:22.765Z,91.28
2022-09-27T08:04:24.772Z,91.30
2022-09-27T08:09:27.783Z,91.29
2022-09-27T08:14:29.495Z,90.85
2022-09-27T08:19:31.683Z,91.08
2022-09-27T08:24:34.755Z,90.75
2022-09-27T08:29:36.432Z,90.39
2022-09-27T08:34:38.427Z,89.67
2022-09-27T08:39:45.541Z,88.61
2022-09-27T08:45:03.129Z,89.01
2022-09-27T08:50:18.065Z,88.64
2022-09-27T08:55:28.100Z,87.75
2022-09-27T09:00:29.905Z,87.73
2022-09-27T09:05:34.410Z,87.11
2022-09-27T09:10:51.394Z,87.17
2022-09-27T09:16:02.535Z,86.44
2022-09-27T09:21:14.890Z,85.43
2022-09-27T09:26:28.121Z,85.79
2022-09-27T09:31:41.249Z,84.71
2022-09-27T09:36:48.048Z,85.42
2022-09-27T09:42:12.639Z,85.05
2022-09-27T09:47:27.135Z,85.59
2022-09-27T09:52:40.145Z,81.79
2022-09-27T09:57:52.836Z,78.87
2022-09-27T10:02:57.875Z,77.57
2022-09-27T10:08:03.342Z,77.05
2022-09-27T10:13:15.020Z,80.53
2022-09-27T10:18:19.982Z,81.43
2022-09-27T10:23:23.643Z,82.78
2022-09-27T10:28:36.380Z,83.17
2022-09-27T10:33:51.672Z,82.05
2022-09-27T10:38:55.104Z,82.08
2022-09-27T10:44:18.721Z,82.73
2022-09-27T10:49:25.188Z,82.64
2022-09-27T10:54:29.396Z,83.12
2022-09-27T10:59:35.582Z,80.93
2022-09-27T11:04:38.566Z,83.48
2022-09-27T11:09:51.565Z,87.25
2022-09-27T11:14:58.989Z,87.03
2022-09-27T11:20:23.441Z,90.02
2022-09-27T11:25:34.333Z,90.15
2022-09-27T11:30:47.961Z,90.87
2022-09-27T11:35:56.496Z,91.44
2022-09-27T11:41:24.239Z,91.29
2022-09-27T11:46:40.239Z,91.15
2022-09-27T11:52:06.357Z,89.80
2022-09-27T11:57:17.175Z,90.33
2022-09-27T12:02:38.204Z,88.12
2022-09-27T12:07:47.645Z,86.68
2022-09-27T12:12:53.318Z,84.96
2022-09-27T12:18:13.788Z,85.79
2022-09-27T12:23:20.493Z,87.05
2022-09-27T12:28:31.209Z,84.67
2022-09-27T12:33:39.922Z,79.45
2022-09-27T12:38:47.525Z,76.01
2022-09-27T12:43:50.800Z,77.74
2022-09-27T12:49:05.561Z,80.58
2022-09-27T12:54:33.650Z,79.43
2022-09-27T13:00:11.654Z,75.40
2022-09-27T13:05:51.269Z,74.48
2022-09-27T13:11:08.450Z,72.36
2022-09-27T13:16:14.183Z,74.85
2022-09-27T13:22:03.027Z,76.82
2022-09-27T13:27:39.857Z,81.19
2022-09-27T13:33:23.130Z,82.96
2022-09-27T13:38:25.720Z,81.07
2022-09-27T13:44:01.610Z,81.74
2022-09-27T13:49:16.101Z,82.38
2022-09-27T13:54:41.522Z,82.31
2022-09-27T13:59:53.001Z,82.91
2022-09-27T14:05:03.568Z,80.49
2022-09-27T14:10:14.338Z,78.56
2022-09-27T14:15:24.031Z,77.75
2022-09-27T14:20:37.514Z,77.21
2022-09-27T14:25:48.047Z,76.65
2022-09-27T14:31:14.160Z,78.67
2022-09-27T14:36:30.824Z,79.58
2022-09-27T14:41:37.354Z,80.70
2022-09-27T14:46:39.786Z,82.08
2022-09-27T14:51:54.329Z,83.12
2022-09-27T14:57:07.593Z,83.00
2022-09-27T15:02:19.474Z,84.88
2022-09-27T15:07:28.982Z,85.20
2022-09-27T15:12:31.745Z,84.57
2022-09-27T15:17:42.502Z,85.70
2022-09-27T15:22:49.524Z,87.14
2022-09-27T15:27:55.551Z,88.14
2022-09-27T15:32:59.048Z,89.15
2022-09-27T15:38:32.785Z,89.97
2022-09-27T15:43:42.468Z,89.87
2022-09-27T15:48:45.191Z,90.05
2022-09-27T15:53:48.916Z,89.85
2022-09-27T15:58:51.141Z,90.11
2022-09-27T16:04:04.342Z,88.72
2022-09-27T16:09:15.817Z,87.92
2022-09-27T16:14:20.334Z,86.25
2022-09-27T16:19:22.875Z,84.17
2022-09-27T16:24:30.361Z,85.28
2022-09-27T16:29:32.759Z,85.28
2022-09-27T16:34:38.341Z,84.42
2022-09-27T16:39:42.151Z,84.44
2022-09-27T16:44:53.364Z,84.68
2022-09-27T16:49:55.922Z,85.26
2022-09-27T16:55:01.450Z,86.18
2022-09-27T17:00:04.739Z,86.46
2022-09-27T17:05:07.450Z,86.84
2022-09-27T17:10:10.694Z,87.82
2022-09-27T17:15:12.351Z,89.22
2022-09-27T17:20:14.160Z,89.14
2022-09-27T17:25:17.455Z,90.60
2022-09-27T17:30:19.090Z,90.15
2022-09-27T17:35:20.664Z,90.44
2022-09-27T17:40:23.658Z,90.09
2022-09-27T17:45:25.623Z,89.94
2022-09-27T17:50:27.301Z,90.08
2022-09-27T17:55:30.525Z,90.17
2022-09-27T18:00:32.176Z,90.29
2022-09-27T18:05:33.995Z,90.46
2022-09-27T18:10:37.302Z,90.87
2022-09-27T18:15:39.583Z,91.15
2022-09-27T18:20:41.867Z,90.63
2022-09-27T18:25:53.432Z,90.65
2022-09-27T18:31:00.639Z,90.58
2022-09-27T18:36:04.748Z,90.93
2022-09-27T18:41:09.602Z,91.75
2022-09-27T18:46:34.603Z,91.86
2022-09-27T18:51:38.634Z,91.93
2022-09-27T18:56:42.334Z,91.91
2022-09-27T19:01:45.239Z,92.38
2022-09-27T19:06:47.964Z,92.23
2022-09-27T19:11:51.225Z,92.51
2022-09-27T19:16:53.265Z,92.32
2022-09-27T19:21:54.983Z,91.78
2022-09-27T19:26:58.136Z,92.11
2022-09-27T19:32:00.268Z,92.02
2022-09-27T19:37:02.471Z,92.54
2022-09-27T19:42:05.662Z,92.12
2022-09-27T19:47:07.801Z,91.38
2022-09-27T19:52:09.749Z,91.78
2022-09-27T19:57:13.137Z,92.11
2022-09-27T20:02:15.192Z,93.01
2022-09-27T20:07:16.926Z,92.27
2022-09-27T20:12:19.911Z,92.33
2022-09-27T20:17:22.093Z,91.90
2022-09-27T20:22:23.686Z,92.21
2022-09-27T20:27:26.728Z,91.77
2022-09-27T20:32:28.727Z,90.98
2022-09-27T20:37:30.622Z,91.59
2022-09-27T20:42:33.815Z,91.57
2022-09-27T20:47:35.911Z,91.84
2022-09-27T20:52:37.538Z,92.08
2022-09-27T20:57:57.045Z,92.48
2022-09-27T21:02:59.801Z,92.80
2022-09-27T21:08:01.912Z,93.10
2022-09-27T21:13:05.269Z,93.00
2022-09-27T21:18:07.153Z,93.43
2022-09-27T21:23:08.785Z,93.51
2022-09-27T21:28:12.289Z,94.37
2022-09-27T21:33:14.450Z,94.71
2022-09-27T21:38:16.375Z,94.47
2022-09-27T21:43:19.668Z,94.12
2022-09-27T21:48:22.146Z,94.20
2022-09-27T21:53:24.384Z,94.41
2022-09-27T21:58:28.132Z,94.02
2022-09-27T22:03:29.725Z,94.42
2022-09-27T22:08:32.457Z,93.79
2022-09-27T22:13:36.002Z,93.37
2022-09-27T22:18:38.920Z,93.62
2022-09-27T22:23:41.001Z,93.86
2022-09-27T22:28:45.691Z,94.64
2022-09-27T22:33:52.522Z,94.51
2022-09-27T22:38:55.125Z,94.49
2022-09-27T22:43:58.179Z,94.69
2022-09-27T22:49:00.040Z,95.45
2022-09-27T22:54:02.045Z,95.29
2022-09-27T22:59:05.636Z,95.05
2022-09-27T23:04:09.618Z,95.38
2022-09-27T23:09:11.874Z,94.83
2022-09-27T23:14:14.883Z,95.08
2022-09-27T23:19:16.895Z,95.13
2022-09-27T23:24:18.544Z,95.19
2022-09-27T23:29:21.502Z,94.94
2022-09-27T23:34:23.497Z,94.97
2022-09-27T23:39:25.266Z,94.92
2022-09-27T23:44:28.729Z,95.36
2022-09-27T23:49:31.052Z,94.71
2022-09-27T23:54:32.683Z,94.80
2022-09-27T23:59:36.113Z,94.92
